DIAP/ABJ METAR and TAF weather

Enter ICAO airport designator
Station Type Date Time Source
DIAP METAR 2021/07/30 08:00 UTC NOAA

DIAP 300800Z 25003KT 4000 BR FEW011 25/25 Q1015 BECMG 6000 NSW


Station Type Date Time Source
DIAP Decoded METAR 2021/07/30 08:00 UTC NOAA

Abidjan, Cote d'Ivoire (DIAP) 05-15N 003-56W 8M
Jul 30, 2021 - 04:00 AM EDT / 2021.07.30 0800 UTC
Wind: from the WSW (250 degrees) at 3 MPH (3 KT):0
Visibility: 2 mile(s):0
Sky conditions: mostly clear
Weather: mist
Temperature: 77 F (25 C)
Dew Point: 77 F (25 C)
Relative Humidity: 100%
Pressure (altimeter): 29.97 in. Hg (1015 hPa)
ob: DIAP 300800Z 25003KT 4000 BR FEW011 25/25 Q1015 BECMG 6000 NSW
cycle: 8

Station Type Date Time Source
DIAP TAF 2021/07/30 06:55 UTC NOAA

TAF DIAP 300500Z 3006/3112 24006KT 9999 SCT012
TEMPO 3006/3009 4000 BR PROB30
TEMPO 3106/3111 FEW008 BKN012

Example: see airport list